createdAt,value
2023-03-12T00:00:49.313Z,2.58
2023-03-12T00:03:51.457Z,2.08
2023-03-12T00:06:53.527Z,2.77
2023-03-12T00:09:55.539Z,2.88
2023-03-12T00:12:57.678Z,2.65
2023-03-12T00:16:04.124Z,2.47
2023-03-12T00:19:06.499Z,2.20
2023-03-12T00:22:08.521Z,2.53
2023-03-12T00:25:12.592Z,2.42
2023-03-12T00:28:14.589Z,2.75
2023-03-12T00:31:37.063Z,2.63
2023-03-12T00:34:39.079Z,2.78
2023-03-12T00:37:41.128Z,2.60
2023-03-12T00:40:43.137Z,2.35
2023-03-12T00:43:45.223Z,2.38
2023-03-12T00:46:47.263Z,2.43
2023-03-12T00:49:49.279Z,2.60
2023-03-12T00:52:51.494Z,2.53
2023-03-12T00:55:53.607Z,2.50
2023-03-12T00:58:55.575Z,2.17
2023-03-12T01:01:57.597Z,2.55
2023-03-12T01:04:59.984Z,2.20
2023-03-12T01:08:02.535Z,2.17
2023-03-12T01:11:04.689Z,2.33
2023-03-12T01:14:07.624Z,2.50
2023-03-12T01:17:09.586Z,2.20
2023-03-12T01:20:11.900Z,2.30
2023-03-12T01:23:14.067Z,2.15
2023-03-12T01:26:16.096Z,2.10
2023-03-12T01:29:18.116Z,2.22
2023-03-12T01:32:20.727Z,1.90
2023-03-12T01:35:22.885Z,2.22
2023-03-12T01:38:25.422Z,2.13
2023-03-12T01:41:28.210Z,2.10
2023-03-12T01:44:30.735Z,2.22
2023-03-12T01:47:32.928Z,2.30
2023-03-12T01:50:38.454Z,2.45
2023-03-12T01:53:40.873Z,2.47
2023-03-12T01:56:43.065Z,2.35
2023-03-12T01:59:47.639Z,2.20
2023-03-12T02:02:49.846Z,2.25
2023-03-12T02:05:58.385Z,2.20
2023-03-12T02:09:00.986Z,2.03
2023-03-12T02:12:04.853Z,2.05
2023-03-12T02:15:07.385Z,2.25
2023-03-12T02:18:10.671Z,2.23
2023-03-12T02:21:13.151Z,2.50
2023-03-12T02:24:19.548Z,2.10
2023-03-12T02:27:22.230Z,2.22
2023-03-12T02:30:24.836Z,2.20
2023-03-12T02:33:26.918Z,2.05
2023-03-12T02:36:29.095Z,2.00
2023-03-12T02:39:31.525Z,2.27
2023-03-12T02:42:33.984Z,2.45
2023-03-12T02:45:36.663Z,2.20
2023-03-12T02:48:38.900Z,2.47
2023-03-12T02:51:41.190Z,2.25
2023-03-12T02:54:43.422Z,2.35
2023-03-12T02:57:46.340Z,2.53
2023-03-12T03:00:50.345Z,2.65
2023-03-12T03:03:52.484Z,2.40
2023-03-12T03:06:54.498Z,2.35
2023-03-12T03:09:56.763Z,2.60
2023-03-12T03:12:59.353Z,3.60
2023-03-12T03:16:08.838Z,3.22
2023-03-12T03:19:11.490Z,3.23
2023-03-12T03:22:13.550Z,2.72
2023-03-12T03:25:16.197Z,2.60
2023-03-12T03:28:19.157Z,2.85
2023-03-12T03:31:21.849Z,3.00
2023-03-12T03:34:23.962Z,3.08
2023-03-12T03:37:26.022Z,2.97
2023-03-12T03:40:28.206Z,2.60
2023-03-12T03:43:30.931Z,2.78
2023-03-12T03:46:35.538Z,2.90
2023-03-12T03:49:41.352Z,2.77
2023-03-12T03:52:43.506Z,2.83
2023-03-12T03:55:45.723Z,3.08
2023-03-12T03:58:48.851Z,2.88
2023-03-12T04:01:52.699Z,2.83
2023-03-12T04:04:57.012Z,2.40
2023-03-12T04:08:03.126Z,2.55
2023-03-12T04:11:14.930Z,2.93
2023-03-12T04:14:17.940Z,2.78
2023-03-12T04:17:20.911Z,2.95
2023-03-12T04:20:23.454Z,2.93
2023-03-12T04:23:26.699Z,3.13
2023-03-12T04:26:29.326Z,3.75
2023-03-12T04:29:32.477Z,3.85
2023-03-12T04:32:34.751Z,3.53
2023-03-12T04:35:36.964Z,3.10
2023-03-12T04:38:39.932Z,3.47
2023-03-12T04:41:43.107Z,3.30
2023-03-12T04:44:50.462Z,3.83
2023-03-12T04:47:53.825Z,3.05
2023-03-12T04:50:55.875Z,3.90
2023-03-12T04:53:58.570Z,3.47
2023-03-12T04:57:01.237Z,3.25
2023-03-12T05:00:10.138Z,3.60
2023-03-12T05:03:12.223Z,3.88
2023-03-12T05:06:14.334Z,3.95
2023-03-12T05:09:16.645Z,3.85
2023-03-12T05:12:18.864Z,4.07
2023-03-12T05:15:21.504Z,4.25
2023-03-12T05:18:23.982Z,3.83
2023-03-12T05:21:25.939Z,4.20
2023-03-12T05:24:30.341Z,3.85
2023-03-12T05:27:32.331Z,4.00
2023-03-12T05:30:34.916Z,4.22
2023-03-12T05:33:37.001Z,4.13
2023-03-12T05:36:39.497Z,3.88
2023-03-12T05:39:46.785Z,4.90
2023-03-12T05:42:50.754Z,5.00
2023-03-12T05:45:53.729Z,5.20
2023-03-12T05:48:55.793Z,4.97
2023-03-12T05:51:58.135Z,4.73
2023-03-12T05:55:01.077Z,4.95
2023-03-12T05:58:03.973Z,4.63
2023-03-12T06:01:16.375Z,5.32
2023-03-12T06:04:19.318Z,4.97
2023-03-12T06:07:22.592Z,5.80
2023-03-12T06:10:25.049Z,6.10
2023-03-12T06:13:28.496Z,5.90
2023-03-12T06:16:31.775Z,6.03
2023-03-12T06:19:33.802Z,6.30
2023-03-12T06:22:36.033Z,6.63
2023-03-12T06:25:37.987Z,6.78
2023-03-12T06:28:40.350Z,7.05
2023-03-12T06:31:44.055Z,6.40
2023-03-12T06:34:46.290Z,7.10
2023-03-12T06:37:48.186Z,6.28
2023-03-12T06:40:55.893Z,5.78
2023-03-12T06:43:59.118Z,6.67
2023-03-12T06:47:01.094Z,6.50
2023-03-12T06:50:03.263Z,7.30
2023-03-12T06:53:05.614Z,5.90
2023-03-12T06:56:07.992Z,6.68
2023-03-12T06:59:10.533Z,6.82
2023-03-12T07:02:12.454Z,6.97
2023-03-12T07:05:14.838Z,6.55
2023-03-12T07:08:16.981Z,6.38
2023-03-12T07:11:19.285Z,5.50
2023-03-12T07:14:21.537Z,5.67
2023-03-12T07:17:24.615Z,5.55
2023-03-12T07:20:27.027Z,5.38
2023-03-12T07:23:29.552Z,5.90
2023-03-12T07:26:33.477Z,4.97
2023-03-12T07:29:35.962Z,4.78
2023-03-12T07:32:37.956Z,5.13
2023-03-12T07:35:40.402Z,5.30
2023-03-12T07:38:42.487Z,5.75
2023-03-12T07:41:44.714Z,5.20
2023-03-12T07:44:47.127Z,5.30
2023-03-12T07:47:49.762Z,5.55
2023-03-12T07:50:52.319Z,5.72
2023-03-12T07:53:54.369Z,5.50
2023-03-12T07:56:57.316Z,5.18
2023-03-12T07:59:59.511Z,4.82
2023-03-12T08:03:02.046Z,4.47
2023-03-12T08:06:05.170Z,4.32
2023-03-12T08:09:07.146Z,4.15
2023-03-12T08:12:09.564Z,4.13
2023-03-12T08:15:12.756Z,4.27
2023-03-12T08:18:14.766Z,4.20
2023-03-12T08:21:17.326Z,4.72
2023-03-12T08:24:19.837Z,4.60
2023-03-12T08:27:22.126Z,3.85
2023-03-12T08:30:24.459Z,4.75
2023-03-12T08:33:26.934Z,4.50
2023-03-12T08:36:29.041Z,4.07
2023-03-12T08:39:31.620Z,4.60
2023-03-12T08:42:33.655Z,3.92
2023-03-12T08:45:38.323Z,4.17
2023-03-12T08:48:41.042Z,4.55
2023-03-12T08:51:43.129Z,4.03
2023-03-12T08:54:45.110Z,4.53
2023-03-12T08:57:47.658Z,4.60
2023-03-12T09:00:49.629Z,4.50
2023-03-12T09:03:54.612Z,4.82
2023-03-12T09:06:57.078Z,3.92
2023-03-12T09:09:59.170Z,4.90
2023-03-12T09:13:01.401Z,5.28
2023-03-12T09:16:04.149Z,4.57
2023-03-12T09:19:06.571Z,4.57
2023-03-12T09:22:08.749Z,4.43
2023-03-12T09:25:10.859Z,4.10
2023-03-12T09:28:15.437Z,4.68
2023-03-12T09:31:18.931Z,4.63
2023-03-12T09:34:21.109Z,4.88
2023-03-12T09:37:24.427Z,4.30
2023-03-12T09:40:29.242Z,4.75
2023-03-12T09:43:34.653Z,4.85
2023-03-12T09:46:39.680Z,4.47
2023-03-12T09:49:53.609Z,4.03
2023-03-12T09:53:05.468Z,3.90
2023-03-12T09:56:10.334Z,4.60
2023-03-12T09:59:12.995Z,4.70
2023-03-12T10:02:23.843Z,4.22
2023-03-12T10:05:31.688Z,3.63
2023-03-12T10:08:36.819Z,3.92
2023-03-12T10:11:45.261Z,3.67
2023-03-12T10:14:50.331Z,3.83
2023-03-12T10:17:58.648Z,3.87
2023-03-12T10:21:09.991Z,3.88
2023-03-12T10:24:15.942Z,3.95
2023-03-12T10:27:18.867Z,3.72
2023-03-12T10:30:23.965Z,4.43
2023-03-12T10:33:29.525Z,3.85
2023-03-12T10:36:38.505Z,3.30
2023-03-12T10:39:40.455Z,3.72
2023-03-12T10:42:43.206Z,3.63
2023-03-12T10:45:57.612Z,3.70
2023-03-12T10:49:18.467Z,4.28
2023-03-12T10:52:21.061Z,3.60
2023-03-12T10:55:24.906Z,3.58
2023-03-12T10:58:27.302Z,3.33
2023-03-12T11:01:30.377Z,3.30
2023-03-12T11:04:32.670Z,3.15
2023-03-12T11:07:35.465Z,3.42
2023-03-12T11:10:39.410Z,2.63
2023-03-12T11:13:41.931Z,2.97
2023-03-12T11:16:43.993Z,3.17
2023-03-12T11:19:46.322Z,2.60
2023-03-12T11:22:51.216Z,2.60
2023-03-12T11:25:58.056Z,3.20
2023-03-12T11:29:23.049Z,3.30
2023-03-12T11:32:28.677Z,3.97
2023-03-12T11:35:33.755Z,3.70
2023-03-12T11:38:35.944Z,3.90
2023-03-12T11:41:56.986Z,4.18
2023-03-12T11:45:05.287Z,3.37
2023-03-12T11:48:07.282Z,3.40
2023-03-12T11:51:15.488Z,3.35
2023-03-12T11:54:17.445Z,4.05
2023-03-12T11:57:42.899Z,10.23
2023-03-12T12:00:48.113Z,3.33
2023-03-12T12:03:50.001Z,3.77
2023-03-12T12:07:05.720Z,4.05
2023-03-12T12:10:26.483Z,3.00
2023-03-12T12:13:31.898Z,5.47
2023-03-12T12:16:40.012Z,3.37
2023-03-12T12:20:00.924Z,2.93
2023-03-12T12:23:10.467Z,2.80
2023-03-12T12:26:13.137Z,2.95
2023-03-12T12:29:17.945Z,2.47
2023-03-12T12:32:40.304Z,3.03
2023-03-12T12:35:43.118Z,2.90
2023-03-12T12:38:52.983Z,3.05
2023-03-12T12:41:55.330Z,2.63
2023-03-12T12:44:57.813Z,2.70
2023-03-12T12:48:07.453Z,3.33
2023-03-12T12:51:09.557Z,2.70
2023-03-12T12:54:16.298Z,2.50
2023-03-12T12:57:19.001Z,2.85
2023-03-12T13:00:33.154Z,2.67
2023-03-12T13:03:36.996Z,2.37
2023-03-12T13:06:53.919Z,2.53
2023-03-12T13:09:56.923Z,2.33
2023-03-12T13:12:59.245Z,2.70
2023-03-12T13:16:17.778Z,2.67
2023-03-12T13:19:24.540Z,2.40
2023-03-12T13:22:29.758Z,2.27
2023-03-12T13:25:50.155Z,2.17
2023-03-12T13:28:56.729Z,2.70
2023-03-12T13:32:05.239Z,2.50
2023-03-12T13:35:27.712Z,1.97
2023-03-12T13:38:36.552Z,2.10
2023-03-12T13:41:57.072Z,2.15
2023-03-12T13:45:04.994Z,2.05
2023-03-12T13:48:17.758Z,2.00
2023-03-12T13:51:23.555Z,1.90
2023-03-12T13:54:27.631Z,2.03
2023-03-12T13:57:38.819Z,2.20
2023-03-12T14:00:43.805Z,1.95
2023-03-12T14:03:49.577Z,1.80
2023-03-12T14:07:07.125Z,1.70
2023-03-12T14:10:12.312Z,2.10
2023-03-12T14:13:22.019Z,1.85
2023-03-12T14:16:26.957Z,1.52
2023-03-12T14:19:45.318Z,1.20
2023-03-12T14:22:51.358Z,1.50
2023-03-12T14:25:55.997Z,1.30
2023-03-12T14:29:00.215Z,1.80
2023-03-12T14:32:03.943Z,1.38
2023-03-12T14:35:09.030Z,1.60
2023-03-12T14:38:16.047Z,1.37
2023-03-12T14:41:19.034Z,1.13
2023-03-12T14:44:25.082Z,1.30
2023-03-12T14:47:27.061Z,1.85
2023-03-12T14:50:30.358Z,1.98
2023-03-12T14:53:33.345Z,1.73
2023-03-12T14:56:36.156Z,2.20
2023-03-12T14:59:39.618Z,1.67
2023-03-12T15:02:42.225Z,1.70
2023-03-12T15:05:47.793Z,2.13
2023-03-12T15:08:49.920Z,2.33
2023-03-12T15:11:58.634Z,2.27
2023-03-12T15:15:01.813Z,2.10
2023-03-12T15:18:07.946Z,2.17
2023-03-12T15:21:10.446Z,1.60
2023-03-12T15:24:13.431Z,1.53
2023-03-12T15:27:30.602Z,2.00
2023-03-12T15:30:32.857Z,2.00
2023-03-12T15:33:35.448Z,2.13
2023-03-12T15:36:37.695Z,2.35
2023-03-12T15:39:39.805Z,2.57
2023-03-12T15:42:42.640Z,2.03
2023-03-12T15:45:44.690Z,2.50
2023-03-12T15:48:47.747Z,2.30
2023-03-12T15:52:03.774Z,2.28
2023-03-12T15:55:06.421Z,2.27
2023-03-12T15:58:43.558Z,2.97
2023-03-12T16:01:54.931Z,2.95
2023-03-12T16:04:57.077Z,3.47
2023-03-12T16:08:01.290Z,2.72
2023-03-12T16:11:03.307Z,2.63
2023-03-12T16:14:06.883Z,3.03
2023-03-12T16:17:13.588Z,3.03
2023-03-12T16:20:17.854Z,2.67
2023-03-12T16:23:20.437Z,4.28
2023-03-12T16:26:23.088Z,3.87
2023-03-12T16:29:27.375Z,3.57
2023-03-12T16:32:29.816Z,5.55
2023-03-12T16:35:32.148Z,3.58
2023-03-12T16:38:34.321Z,3.13
2023-03-12T16:41:36.344Z,2.90
2023-03-12T16:44:38.484Z,2.53
2023-03-12T16:47:40.710Z,2.20
2023-03-12T16:50:46.868Z,2.00
2023-03-12T16:53:58.663Z,2.10
2023-03-12T16:57:09.292Z,3.50
2023-03-12T17:00:19.590Z,3.78
2023-03-12T17:03:28.658Z,4.30
2023-03-12T17:06:30.976Z,3.80
2023-03-12T17:09:34.582Z,6.80
2023-03-12T17:12:38.583Z,6.70
2023-03-12T17:15:41.032Z,10.20
2023-03-12T17:18:43.402Z,9.30
2023-03-12T17:21:45.352Z,9.50
2023-03-12T17:24:47.448Z,8.35
2023-03-12T17:27:49.690Z,10.48
2023-03-12T17:30:51.773Z,9.10
2023-03-12T17:33:54.209Z,7.50
2023-03-12T17:36:56.343Z,7.60
2023-03-12T17:39:58.472Z,11.48
2023-03-12T17:43:00.462Z,13.48
2023-03-12T17:46:06.296Z,15.87
2023-03-12T17:49:08.654Z,14.75
2023-03-12T17:52:10.800Z,12.02
2023-03-12T17:55:13.017Z,15.05
2023-03-12T17:58:15.422Z,11.30
2023-03-12T18:01:17.688Z,10.52
2023-03-12T18:04:19.758Z,11.00
2023-03-12T18:07:21.969Z,11.63
2023-03-12T18:10:24.451Z,13.10
2023-03-12T18:13:26.946Z,15.63
2023-03-12T18:16:29.039Z,14.50
2023-03-12T18:19:31.089Z,13.45
2023-03-12T18:22:33.011Z,13.82
2023-03-12T18:25:36.768Z,13.82
2023-03-12T18:28:38.830Z,14.32
2023-03-12T18:31:41.478Z,20.02
2023-03-12T18:34:43.480Z,29.77
2023-03-12T18:37:46.148Z,28.77
2023-03-12T18:40:48.170Z,24.83
2023-03-12T18:43:53.406Z,21.95
2023-03-12T18:46:55.407Z,19.97
2023-03-12T18:49:57.413Z,32.25
2023-03-12T18:52:59.777Z,47.50
2023-03-12T18:56:02.963Z,50.60
2023-03-12T18:59:04.934Z,42.17
2023-03-12T19:02:07.999Z,40.20
2023-03-12T19:05:11.090Z,38.45
2023-03-12T19:08:13.342Z,37.47
2023-03-12T19:11:15.621Z,31.90
2023-03-12T19:14:17.791Z,35.80
2023-03-12T19:17:20.155Z,29.00
2023-03-12T19:20:22.564Z,34.15
2023-03-12T19:23:25.130Z,32.17
2023-03-12T19:26:27.075Z,30.98
2023-03-12T19:29:29.678Z,29.73
2023-03-12T19:32:42.513Z,25.95
2023-03-12T19:35:45.243Z,25.13
2023-03-12T19:38:47.621Z,28.30
2023-03-12T19:41:50.491Z,30.15
2023-03-12T19:44:52.674Z,25.95
2023-03-12T19:47:54.744Z,26.47
2023-03-12T19:50:57.190Z,24.90
2023-03-12T19:53:59.189Z,25.23
2023-03-12T19:57:01.184Z,25.30
2023-03-12T20:00:07.377Z,25.52
2023-03-12T20:03:09.521Z,25.77
2023-03-12T20:06:12.139Z,24.23
2023-03-12T20:09:14.609Z,24.03
2023-03-12T20:12:16.636Z,24.58
2023-03-12T20:15:18.659Z,25.88
2023-03-12T20:18:20.614Z,26.13
2023-03-12T20:21:22.815Z,24.67
2023-03-12T20:24:24.777Z,24.02
2023-03-12T20:27:26.900Z,23.40
2023-03-12T20:30:28.984Z,23.00
2023-03-12T20:33:31.421Z,23.83
2023-03-12T20:36:33.416Z,23.27
2023-03-12T20:39:35.794Z,23.87
2023-03-12T20:42:38.218Z,23.15
2023-03-12T20:45:40.205Z,21.27
2023-03-12T20:48:42.589Z,20.97
2023-03-12T20:51:45.376Z,19.15
2023-03-12T20:54:47.337Z,21.30
2023-03-12T20:57:49.471Z,19.77
2023-03-12T21:00:51.966Z,18.90
2023-03-12T21:03:57.476Z,18.13
2023-03-12T21:06:59.883Z,17.77
2023-03-12T21:10:01.896Z,17.33
2023-03-12T21:13:04.069Z,17.42
2023-03-12T21:16:06.876Z,15.45
2023-03-12T21:19:08.891Z,12.33
2023-03-12T21:22:11.343Z,11.68
2023-03-12T21:25:13.386Z,11.30
2023-03-12T21:28:15.793Z,10.23
2023-03-12T21:31:18.589Z,10.10
2023-03-12T21:34:21.542Z,9.13
2023-03-12T21:37:24.542Z,8.07
2023-03-12T21:40:26.556Z,9.17
2023-03-12T21:43:29.040Z,8.70
2023-03-12T21:46:31.294Z,8.73
2023-03-12T21:49:34.935Z,9.13
2023-03-12T21:52:42.901Z,7.88
2023-03-12T21:55:55.289Z,8.02
2023-03-12T21:58:57.414Z,7.57
2023-03-12T22:01:59.954Z,7.55
2023-03-12T22:05:01.958Z,6.63
2023-03-12T22:08:04.448Z,6.90
2023-03-12T22:11:06.723Z,7.93
2023-03-12T22:14:09.145Z,6.78
2023-03-12T22:17:11.500Z,6.78
2023-03-12T22:20:13.510Z,6.53
2023-03-12T22:23:15.529Z,7.00
2023-03-12T22:26:17.487Z,6.20
2023-03-12T22:29:19.874Z,7.13
2023-03-12T22:32:21.886Z,6.95
2023-03-12T22:35:26.014Z,6.45
2023-03-12T22:38:27.981Z,6.05
2023-03-12T22:41:30.644Z,6.07
2023-03-12T22:44:32.626Z,6.40
2023-03-12T22:47:35.087Z,6.47
2023-03-12T22:50:37.413Z,7.20
2023-03-12T22:53:39.987Z,6.70
2023-03-12T22:56:42.007Z,7.22
2023-03-12T22:59:43.967Z,6.95
2023-03-12T23:02:45.876Z,6.85
2023-03-12T23:05:47.884Z,7.30
2023-03-12T23:08:50.330Z,7.25
2023-03-12T23:11:52.585Z,7.13
2023-03-12T23:14:54.569Z,7.82
2023-03-12T23:17:57.105Z,6.55
2023-03-12T23:20:59.995Z,8.00
2023-03-12T23:24:02.407Z,7.10
2023-03-12T23:27:04.791Z,7.10
2023-03-12T23:30:07.810Z,7.10
2023-03-12T23:33:09.868Z,6.40
2023-03-12T23:36:13.507Z,6.38
2023-03-12T23:39:15.969Z,6.80
2023-03-12T23:42:18.067Z,6.33
2023-03-12T23:45:20.100Z,8.30
2023-03-12T23:48:22.444Z,6.90
2023-03-12T23:51:30.886Z,8.10
2023-03-12T23:54:32.990Z,7.45
2023-03-12T23:57:35.290Z,7.03
